createdAt,value
2023-05-05T00:00:49.331Z,1.77
2023-05-05T00:03:54.409Z,1.80
2023-05-05T00:07:00.180Z,2.72
2023-05-05T00:10:05.811Z,2.60
2023-05-05T00:13:14.191Z,2.50
2023-05-05T00:16:19.711Z,2.45
2023-05-05T00:19:25.580Z,2.05
2023-05-05T00:22:30.834Z,2.35
2023-05-05T00:25:36.444Z,2.78
2023-05-05T00:28:44.359Z,2.72
2023-05-05T00:31:49.706Z,2.85
2023-05-05T00:34:55.004Z,2.38
2023-05-05T00:38:00.786Z,2.60
2023-05-05T00:41:07.542Z,3.35
2023-05-05T00:44:15.454Z,2.67
2023-05-05T00:47:21.010Z,3.00
2023-05-05T00:50:27.171Z,3.00
2023-05-05T00:53:32.874Z,3.10
2023-05-05T00:56:38.384Z,2.67
2023-05-05T00:59:46.780Z,3.03
2023-05-05T01:06:01.940Z,3.42
2023-05-05T01:09:23.082Z,2.50
2023-05-05T01:12:34.927Z,2.53
2023-05-05T01:15:46.659Z,2.55
2023-05-05T01:18:57.305Z,4.20
2023-05-05T01:22:05.168Z,2.83
2023-05-05T01:25:24.738Z,2.78
2023-05-05T01:28:43.813Z,3.35
2023-05-05T01:31:55.368Z,3.88
2023-05-05T01:35:03.364Z,2.97
2023-05-05T01:38:12.862Z,3.00
2023-05-05T01:41:21.473Z,3.55
2023-05-05T01:44:26.896Z,2.97
2023-05-05T01:47:35.641Z,3.25
2023-05-05T01:50:42.072Z,3.70
2023-05-05T01:53:47.562Z,3.33
2023-05-05T01:56:53.715Z,2.80
2023-05-05T02:00:00.209Z,2.80
2023-05-05T02:03:09.936Z,3.05
2023-05-05T02:06:15.737Z,2.75
2023-05-05T02:09:21.550Z,3.28
2023-05-05T02:12:26.634Z,2.65
2023-05-05T02:15:34.055Z,2.80
2023-05-05T02:18:42.581Z,3.03
2023-05-05T02:24:53.422Z,3.15
2023-05-05T02:28:00.684Z,2.60
2023-05-05T02:31:06.020Z,2.92
2023-05-05T02:34:14.773Z,3.22
2023-05-05T02:37:22.984Z,2.83
2023-05-05T02:40:34.441Z,2.58
2023-05-05T02:43:42.322Z,3.00
2023-05-05T02:46:48.698Z,2.90
2023-05-05T02:49:56.860Z,3.03
2023-05-05T02:53:02.876Z,2.97
2023-05-05T02:56:11.612Z,3.20
2023-05-05T02:59:27.686Z,2.83
2023-05-05T03:02:41.532Z,2.75
2023-05-05T03:05:54.781Z,3.33
2023-05-05T03:09:06.664Z,2.90
2023-05-05T03:12:13.779Z,2.30
2023-05-05T03:15:31.121Z,2.53
2023-05-05T03:18:39.132Z,2.30
2023-05-05T03:21:47.656Z,2.53
2023-05-05T03:31:06.903Z,1.95
2023-05-05T03:34:14.748Z,2.20
2023-05-05T03:37:27.489Z,1.80
2023-05-05T03:40:43.773Z,2.10
2023-05-05T03:43:53.835Z,1.77
2023-05-05T03:46:59.778Z,1.70
2023-05-05T03:50:07.905Z,3.17
2023-05-05T03:53:16.758Z,1.67
2023-05-05T03:59:27.324Z,1.98
2023-05-05T04:02:33.218Z,2.00
2023-05-05T04:05:39.641Z,1.90
2023-05-05T04:08:47.656Z,1.83
2023-05-05T04:14:59.088Z,1.77
2023-05-05T04:18:04.993Z,1.92
2023-05-05T04:21:10.568Z,1.67
2023-05-05T04:24:23.404Z,1.73
2023-05-05T04:27:30.660Z,1.80
2023-05-05T04:30:37.818Z,2.25
2023-05-05T04:33:43.423Z,1.95
2023-05-05T04:36:49.738Z,1.70
2023-05-05T04:39:58.242Z,2.30
2023-05-05T04:46:09.342Z,1.65
2023-05-05T04:49:16.388Z,1.80
2023-05-05T04:52:21.910Z,1.33
2023-05-05T04:55:29.858Z,1.40
2023-05-05T05:01:41.708Z,1.58
2023-05-05T05:04:47.157Z,1.33
2023-05-05T05:07:53.107Z,1.33
2023-05-05T05:11:01.943Z,1.45
2023-05-05T05:14:07.931Z,1.40
2023-05-05T05:17:13.415Z,1.63
2023-05-05T05:20:20.303Z,1.50
2023-05-05T05:23:26.014Z,1.80
2023-05-05T05:26:33.954Z,1.77
2023-05-05T05:29:39.256Z,1.60
2023-05-05T05:32:44.881Z,2.15
2023-05-05T05:35:50.233Z,1.67
2023-05-05T05:38:58.289Z,1.92
2023-05-05T05:42:07.665Z,2.25
2023-05-05T05:45:14.500Z,1.70
2023-05-05T05:48:21.743Z,1.80
2023-05-05T05:51:27.412Z,1.63
2023-05-05T05:54:34.690Z,1.70
2023-05-05T05:57:44.144Z,1.90
2023-05-05T06:00:51.345Z,1.63
2023-05-05T06:03:56.936Z,1.58
2023-05-05T06:07:02.411Z,1.42
2023-05-05T06:10:25.803Z,1.90
2023-05-05T06:13:39.799Z,1.75
2023-05-05T06:16:45.200Z,1.70
2023-05-05T06:19:55.013Z,1.90
2023-05-05T06:23:00.508Z,2.70
2023-05-05T06:26:08.922Z,1.65
2023-05-05T06:29:16.949Z,1.50
2023-05-05T06:32:21.945Z,1.30
2023-05-05T06:35:27.513Z,1.50
2023-05-05T06:38:32.803Z,1.48
2023-05-05T06:41:37.909Z,1.65
2023-05-05T06:44:45.905Z,2.38
2023-05-05T06:47:51.349Z,1.57
2023-05-05T06:50:56.634Z,1.70
2023-05-05T06:54:02.034Z,1.58
2023-05-05T06:57:07.285Z,1.60
2023-05-05T07:00:17.329Z,1.70
2023-05-05T07:03:22.758Z,2.00
2023-05-05T07:06:28.224Z,1.40
2023-05-05T07:09:33.660Z,1.50
2023-05-05T07:12:39.272Z,1.50
2023-05-05T07:15:47.539Z,1.42
2023-05-05T07:18:53.003Z,2.25
2023-05-05T07:21:58.797Z,2.00
2023-05-05T07:25:07.482Z,2.38
2023-05-05T07:28:13.031Z,1.63
2023-05-05T07:31:22.285Z,1.70
2023-05-05T07:34:28.353Z,1.70
2023-05-05T07:37:33.585Z,1.70
2023-05-05T07:40:39.084Z,1.45
2023-05-05T07:43:44.784Z,1.90
2023-05-05T07:46:53.028Z,1.65
2023-05-05T07:49:58.273Z,1.55
2023-05-05T07:53:13.523Z,1.75
2023-05-05T07:56:21.796Z,1.80
2023-05-05T07:59:29.050Z,1.77
2023-05-05T08:02:37.050Z,1.83
2023-05-05T08:05:42.490Z,1.90
2023-05-05T08:08:47.783Z,2.30
2023-05-05T08:11:53.256Z,1.75
2023-05-05T08:14:58.564Z,1.70
2023-05-05T08:18:06.632Z,2.20
2023-05-05T08:21:12.467Z,1.80
2023-05-05T08:24:18.221Z,2.13
2023-05-05T08:27:23.499Z,3.13
2023-05-05T08:30:28.877Z,1.92
2023-05-05T08:33:37.162Z,2.00
2023-05-05T08:36:42.527Z,1.77
2023-05-05T08:39:48.155Z,1.98
2023-05-05T08:42:53.495Z,2.13
2023-05-05T08:45:59.191Z,1.90
2023-05-05T08:49:09.511Z,1.88
2023-05-05T08:52:17.093Z,1.50
2023-05-05T08:55:27.006Z,1.83
2023-05-05T08:58:33.599Z,1.80
2023-05-05T09:01:39.363Z,1.92
2023-05-05T09:04:47.388Z,2.15
2023-05-05T09:07:53.302Z,1.80
2023-05-05T09:10:58.796Z,1.80
2023-05-05T09:17:28.004Z,2.08
2023-05-05T09:20:37.009Z,2.20
2023-05-05T09:23:42.255Z,1.90
2023-05-05T09:26:48.120Z,1.88
2023-05-05T09:29:53.638Z,1.73
2023-05-05T09:32:59.180Z,2.05
2023-05-05T09:36:07.090Z,2.10
2023-05-05T09:39:12.483Z,2.72
2023-05-05T09:42:20.974Z,2.45
2023-05-05T09:48:32.377Z,2.35
2023-05-05T09:51:40.821Z,2.05
2023-05-05T09:54:46.464Z,3.65
2023-05-05T09:57:51.849Z,2.33
2023-05-05T10:00:57.560Z,2.35
2023-05-05T10:04:03.445Z,2.40
2023-05-05T10:07:11.390Z,2.47
2023-05-05T10:10:18.074Z,2.47
2023-05-05T10:13:24.151Z,2.33
2023-05-05T10:16:31.669Z,2.13
2023-05-05T10:19:38.183Z,2.17
2023-05-05T10:22:48.313Z,2.20
2023-05-05T10:25:56.676Z,2.22
2023-05-05T10:29:03.068Z,2.38
2023-05-05T10:32:37.021Z,2.00
2023-05-05T10:35:43.178Z,2.35
2023-05-05T10:41:56.020Z,2.13
2023-05-05T10:45:01.304Z,2.45
2023-05-05T10:48:12.371Z,2.20
2023-05-05T10:54:37.849Z,1.88
2023-05-05T10:57:47.830Z,2.13
2023-05-05T11:00:54.313Z,2.13
2023-05-05T11:04:20.318Z,2.55
2023-05-05T11:07:28.033Z,2.50
2023-05-05T11:10:46.751Z,2.60
2023-05-05T11:14:15.150Z,2.42
2023-05-05T11:17:35.576Z,2.55
2023-05-05T11:20:56.516Z,3.08
2023-05-05T11:24:21.127Z,3.22
2023-05-05T11:27:46.586Z,2.50
2023-05-05T11:31:15.919Z,2.33
2023-05-05T11:34:31.683Z,2.72
2023-05-05T11:37:37.602Z,2.30
2023-05-05T11:40:44.889Z,2.17
2023-05-05T11:43:50.184Z,2.45
2023-05-05T11:47:10.279Z,2.35
2023-05-05T11:50:24.958Z,1.90
2023-05-05T11:53:30.864Z,2.20
2023-05-05T11:56:36.242Z,1.95
2023-05-05T11:59:52.667Z,1.63
2023-05-05T12:03:01.047Z,2.10
2023-05-05T12:09:18.023Z,1.40
2023-05-05T12:12:23.598Z,1.60
2023-05-05T12:15:32.232Z,1.48
2023-05-05T12:18:38.337Z,1.70
2023-05-05T12:21:43.815Z,1.80
2023-05-05T12:24:55.784Z,1.75
2023-05-05T12:28:12.816Z,1.73
2023-05-05T12:31:18.054Z,1.90
2023-05-05T12:34:24.526Z,1.88
2023-05-05T12:37:30.083Z,2.17
2023-05-05T12:40:48.396Z,1.80
2023-05-05T12:44:00.530Z,2.40
2023-05-05T12:47:06.458Z,1.83
2023-05-05T12:50:12.419Z,2.10
2023-05-05T12:53:23.945Z,1.58
2023-05-05T12:56:33.103Z,1.70
2023-05-05T12:59:41.083Z,1.80
2023-05-05T13:02:46.746Z,1.80
2023-05-05T13:05:52.544Z,1.92
2023-05-05T13:08:57.870Z,1.80
2023-05-05T13:12:04.385Z,2.60
2023-05-05T13:15:13.933Z,1.60
2023-05-05T13:18:19.494Z,1.98
2023-05-05T13:21:24.875Z,2.13
2023-05-05T13:24:46.571Z,2.60
2023-05-05T13:27:55.701Z,1.85
2023-05-05T13:31:03.792Z,2.25
2023-05-05T13:34:09.337Z,2.60
2023-05-05T13:37:14.519Z,2.30
2023-05-05T13:40:20.264Z,2.30
2023-05-05T13:43:25.482Z,2.00
2023-05-05T13:46:33.461Z,2.03
2023-05-05T13:49:38.797Z,2.20
2023-05-05T13:52:44.542Z,2.20
2023-05-05T13:55:49.750Z,1.90
2023-05-05T13:58:55.354Z,2.05
2023-05-05T14:02:04.180Z,2.85
2023-05-05T14:05:10.306Z,2.10
2023-05-05T14:08:16.085Z,2.08
2023-05-05T14:11:21.993Z,2.22
2023-05-05T14:14:27.611Z,2.10
2023-05-05T14:17:36.048Z,2.65
2023-05-05T14:20:41.586Z,2.05
2023-05-05T14:23:46.977Z,1.80
2023-05-05T14:26:52.443Z,2.15
2023-05-05T14:29:58.030Z,2.72
2023-05-05T14:33:06.172Z,2.05
2023-05-05T14:36:12.164Z,2.40
2023-05-05T14:39:17.626Z,1.98
2023-05-05T14:42:22.874Z,2.03
2023-05-05T14:45:29.935Z,3.20
2023-05-05T14:48:38.400Z,2.05
2023-05-05T14:51:43.648Z,1.77
2023-05-05T14:54:49.205Z,1.58
2023-05-05T14:57:54.659Z,1.80
2023-05-05T15:01:00.843Z,1.80
2023-05-05T15:04:09.051Z,1.92
2023-05-05T15:07:14.475Z,2.00
2023-05-05T15:10:21.836Z,1.70
2023-05-05T15:13:27.644Z,2.13
2023-05-05T15:16:35.112Z,1.92
2023-05-05T15:19:43.986Z,1.75
2023-05-05T15:22:49.707Z,1.80
2023-05-05T15:25:55.224Z,1.23
2023-05-05T15:29:00.564Z,1.50
2023-05-05T15:32:06.012Z,1.75
2023-05-05T15:35:13.991Z,2.00
2023-05-05T15:38:19.399Z,1.50
2023-05-05T15:41:27.386Z,1.70
2023-05-05T15:44:32.814Z,1.70
2023-05-05T15:47:38.008Z,2.10
2023-05-05T15:50:46.385Z,1.88
2023-05-05T15:53:52.662Z,1.67
2023-05-05T15:56:58.350Z,1.50
2023-05-05T16:00:03.645Z,2.08
2023-05-05T16:03:12.669Z,1.70
2023-05-05T16:06:20.837Z,2.00
2023-05-05T16:09:26.288Z,1.80
2023-05-05T16:12:31.840Z,1.52
2023-05-05T16:15:37.778Z,1.70
2023-05-05T16:18:43.186Z,1.73
2023-05-05T16:21:51.141Z,1.88
2023-05-05T16:24:56.343Z,1.70
2023-05-05T16:28:02.310Z,1.60
2023-05-05T16:31:09.872Z,2.03
2023-05-05T16:34:15.072Z,1.90
2023-05-05T16:37:23.301Z,2.35
2023-05-05T16:40:28.720Z,1.80
2023-05-05T16:43:34.396Z,2.03
2023-05-05T16:46:40.339Z,2.63
2023-05-05T16:49:46.094Z,2.40
2023-05-05T16:52:54.258Z,1.83
2023-05-05T16:55:59.783Z,2.17
2023-05-05T16:59:05.380Z,2.50
2023-05-05T17:02:10.853Z,1.73
2023-05-05T17:05:17.838Z,2.35
2023-05-05T17:08:25.964Z,1.40
2023-05-05T17:11:31.322Z,1.42
2023-05-05T17:14:37.321Z,1.50
2023-05-05T17:17:43.300Z,2.00
2023-05-05T17:20:49.040Z,1.60
2023-05-05T17:23:56.861Z,1.58
2023-05-05T17:27:02.491Z,1.80
2023-05-05T17:30:10.961Z,1.40
2023-05-05T17:33:18.670Z,2.10
2023-05-05T17:36:23.946Z,2.42
2023-05-05T17:39:32.059Z,2.03
2023-05-05T17:42:38.755Z,2.38
2023-05-05T17:45:44.218Z,1.80
2023-05-05T17:48:49.681Z,2.03
2023-05-05T17:51:55.070Z,2.53
2023-05-05T17:55:02.998Z,2.28
2023-05-05T17:58:09.392Z,2.40
2023-05-05T18:01:23.185Z,2.33
2023-05-05T18:04:28.574Z,2.50
2023-05-05T18:07:33.986Z,2.97
2023-05-05T18:10:42.281Z,3.05
2023-05-05T18:13:47.681Z,2.65
2023-05-05T18:16:54.142Z,3.10
2023-05-05T18:19:59.663Z,2.47
2023-05-05T18:23:05.267Z,2.50
2023-05-05T18:26:13.550Z,2.47
2023-05-05T18:29:18.839Z,2.97
2023-05-05T18:32:24.571Z,3.13
2023-05-05T18:35:30.085Z,2.72
2023-05-05T18:38:35.546Z,2.92
2023-05-05T18:41:44.125Z,2.70
2023-05-05T18:44:49.425Z,2.60
2023-05-05T18:47:54.783Z,3.55
2023-05-05T18:51:04.131Z,3.33
2023-05-05T18:54:09.779Z,4.40
2023-05-05T18:57:17.609Z,3.35
2023-05-05T19:00:23.245Z,3.80
2023-05-05T19:03:28.737Z,3.60
2023-05-05T19:06:34.458Z,3.50
2023-05-05T19:09:40.105Z,2.95
2023-05-05T19:12:48.489Z,2.88
2023-05-05T19:15:54.128Z,2.75
2023-05-05T19:19:01.096Z,3.40
2023-05-05T19:22:06.697Z,2.53
2023-05-05T19:25:14.858Z,2.22
2023-05-05T19:28:22.894Z,2.05
2023-05-05T19:31:28.483Z,2.17
2023-05-05T19:34:33.929Z,2.20
2023-05-05T19:37:39.121Z,2.22
2023-05-05T19:40:44.902Z,2.40
2023-05-05T19:43:53.261Z,2.30
2023-05-05T19:46:58.959Z,2.30
2023-05-05T19:50:04.947Z,2.20
2023-05-05T19:53:11.224Z,2.20
2023-05-05T19:56:17.276Z,2.10
2023-05-05T19:59:25.149Z,2.85
2023-05-05T20:02:30.838Z,1.80
2023-05-05T20:05:36.363Z,2.70
2023-05-05T20:08:41.901Z,3.45
2023-05-05T20:11:47.456Z,3.05
2023-05-05T20:14:55.943Z,2.10
2023-05-05T20:21:06.584Z,2.10
2023-05-05T20:24:12.134Z,3.28
2023-05-05T20:27:17.775Z,3.20
2023-05-05T20:30:25.759Z,3.38
2023-05-05T20:33:31.035Z,2.47
2023-05-05T20:36:36.265Z,2.35
2023-05-05T20:39:42.631Z,2.70
2023-05-05T20:42:47.979Z,2.10
2023-05-05T20:45:56.082Z,2.55
2023-05-05T20:49:01.347Z,2.28
2023-05-05T20:52:06.860Z,2.17
2023-05-05T20:55:12.564Z,1.92
2023-05-05T20:58:18.323Z,2.10
2023-05-05T21:01:26.259Z,1.60
2023-05-05T21:04:31.618Z,1.63
2023-05-05T21:07:37.283Z,1.60
2023-05-05T21:10:42.692Z,1.88
2023-05-05T21:13:48.322Z,1.88
2023-05-05T21:16:56.699Z,1.40
2023-05-05T21:23:08.122Z,1.85
2023-05-05T21:26:13.702Z,2.03
2023-05-05T21:29:18.982Z,1.50
2023-05-05T21:32:27.342Z,1.75
2023-05-05T21:38:37.883Z,1.92
2023-05-05T21:41:43.331Z,2.78
2023-05-05T21:44:48.794Z,1.40
2023-05-05T21:47:56.762Z,1.70
2023-05-05T21:51:02.222Z,1.85
2023-05-05T21:54:07.775Z,1.63
2023-05-05T21:57:13.224Z,1.60
2023-05-05T22:00:19.341Z,1.60
2023-05-05T22:03:27.376Z,1.92
2023-05-05T22:06:33.546Z,1.70
2023-05-05T22:09:39.516Z,1.77
2023-05-05T22:12:45.079Z,1.60
2023-05-05T22:15:50.631Z,1.92
2023-05-05T22:18:59.085Z,1.73
2023-05-05T22:25:10.369Z,3.35
2023-05-05T22:28:16.400Z,2.00
2023-05-05T22:31:21.901Z,1.65
2023-05-05T22:34:30.287Z,1.90
2023-05-05T22:37:35.680Z,2.53
2023-05-05T22:40:41.483Z,1.60
2023-05-05T22:43:47.867Z,1.63
2023-05-05T22:46:53.182Z,1.60
2023-05-05T22:50:01.094Z,2.10
2023-05-05T22:53:08.910Z,1.83
2023-05-05T22:56:14.236Z,1.38
2023-05-05T22:59:19.528Z,1.90
2023-05-05T23:02:26.847Z,1.58
2023-05-05T23:05:36.037Z,1.65
2023-05-05T23:08:42.060Z,1.70
2023-05-05T23:11:47.484Z,1.52
2023-05-05T23:14:52.996Z,1.40
2023-05-05T23:17:58.422Z,1.48
2023-05-05T23:21:06.635Z,1.08
2023-05-05T23:24:12.013Z,1.83
2023-05-05T23:27:17.467Z,1.70
2023-05-05T23:30:23.000Z,1.10
2023-05-05T23:33:28.366Z,1.38
2023-05-05T23:36:36.688Z,1.70
2023-05-05T23:39:42.255Z,1.30
2023-05-05T23:42:47.789Z,1.65
2023-05-05T23:45:53.040Z,1.63
2023-05-05T23:48:58.696Z,1.40
2023-05-05T23:52:06.757Z,1.58
2023-05-05T23:55:13.152Z,1.70
2023-05-05T23:58:18.369Z,1.60
